createdAt,value
2018-02-19T00:00:12.625Z,8.80
2018-02-19T00:02:40.902Z,11.23
2018-02-19T00:05:15.596Z,9.97
2018-02-19T00:07:43.837Z,9.77
2018-02-19T00:10:15.652Z,10.77
2018-02-19T00:12:43.925Z,11.80
2018-02-19T00:15:12.685Z,12.00
2018-02-19T00:17:40.934Z,10.80
2018-02-19T00:20:13.549Z,11.67
2018-02-19T00:22:41.793Z,11.83
2018-02-19T00:25:16.469Z,10.87
2018-02-19T00:27:44.721Z,10.63
2018-02-19T00:30:16.345Z,10.00
2018-02-19T00:32:45.373Z,9.50
2018-02-19T00:35:16.156Z,9.63
2018-02-19T00:37:44.417Z,10.77
2018-02-19T00:40:16.484Z,10.93
2018-02-19T00:42:44.751Z,10.47
2018-02-19T00:45:13.037Z,10.77
2018-02-19T00:47:41.302Z,9.80
2018-02-19T00:50:09.818Z,10.10
2018-02-19T00:52:38.406Z,11.75
2018-02-19T00:55:12.389Z,10.30
2018-02-19T00:57:40.317Z,10.90
2018-02-19T01:00:15.279Z,10.50
2018-02-19T01:02:43.545Z,10.67
2018-02-19T01:05:15.167Z,10.97
2018-02-19T01:07:43.235Z,10.57
2018-02-19T01:10:15.305Z,10.67
2018-02-19T01:12:43.569Z,11.40
2018-02-19T01:15:11.845Z,11.20
2018-02-19T01:17:40.097Z,11.63
2018-02-19T01:20:15.826Z,11.57
2018-02-19T01:22:44.089Z,11.90
2018-02-19T01:25:15.726Z,12.13
2018-02-19T01:27:43.983Z,12.63
2018-02-19T01:30:14.933Z,13.20
2018-02-19T01:32:43.179Z,13.20
2018-02-19T01:35:16.503Z,12.83
2018-02-19T01:37:44.750Z,13.17
2018-02-19T01:40:16.135Z,14.20
2018-02-19T01:42:44.393Z,14.40
2018-02-19T01:45:16.411Z,15.70
2018-02-19T01:47:44.665Z,17.17
2018-02-19T01:50:15.185Z,14.90
2018-02-19T01:52:42.596Z,14.40
2018-02-19T01:55:11.165Z,13.43
2018-02-19T01:57:39.725Z,14.95
2018-02-19T02:00:15.081Z,14.43
2018-02-19T02:02:43.658Z,15.68
2018-02-19T02:05:15.751Z,15.33
2018-02-19T02:07:44.023Z,14.43
2018-02-19T02:10:16.344Z,15.65
2018-02-19T02:12:45.705Z,16.00
2018-02-19T02:15:19.208Z,14.23
2018-02-19T02:17:47.457Z,12.50
2018-02-19T02:20:16.003Z,13.30
2018-02-19T02:22:44.280Z,11.70
2018-02-19T02:25:16.263Z,11.90
2018-02-19T02:27:44.513Z,9.67
2018-02-19T02:30:12.766Z,11.20
2018-02-19T02:32:41.153Z,11.53
2018-02-19T02:35:10.122Z,9.90
2018-02-19T02:37:38.405Z,12.00
2018-02-19T02:40:15.633Z,10.93
2018-02-19T02:42:44.094Z,10.43
2018-02-19T02:45:15.902Z,11.70
2018-02-19T02:47:44.458Z,11.75
2018-02-19T02:50:15.914Z,12.60
2018-02-19T02:52:44.487Z,12.85
2018-02-19T02:55:16.671Z,12.60
2018-02-19T02:57:45.234Z,13.85
2018-02-19T03:00:15.575Z,13.25
2018-02-19T03:02:44.137Z,13.82
2018-02-19T03:05:16.315Z,13.05
2018-02-19T03:07:45.584Z,12.50
2018-02-19T03:10:16.173Z,12.55
2018-02-19T03:12:44.730Z,10.88
2018-02-19T03:15:16.309Z,10.40
2018-02-19T03:17:44.866Z,12.73
2018-02-19T03:20:16.625Z,11.55
2018-02-19T03:22:45.173Z,11.20
2018-02-19T03:25:16.270Z,12.70
2018-02-19T03:27:44.823Z,13.30
2018-02-19T03:30:16.719Z,12.57
2018-02-19T03:32:45.303Z,12.07
2018-02-19T03:35:16.584Z,11.25
2018-02-19T03:37:45.128Z,10.77
2018-02-19T03:40:13.387Z,11.33
2018-02-19T03:42:41.773Z,12.10
2018-02-19T03:45:16.033Z,11.57
2018-02-19T03:47:44.606Z,14.10
2018-02-19T03:50:15.763Z,19.05
2018-02-19T03:52:44.331Z,15.82
2018-02-19T03:55:16.191Z,14.82
2018-02-19T03:57:44.767Z,15.98
2018-02-19T04:00:17.560Z,15.68
2018-02-19T04:02:46.127Z,15.40
2018-02-19T04:05:14.682Z,15.18
2018-02-19T04:07:43.988Z,16.20
2018-02-19T04:10:16.411Z,13.90
2018-02-19T04:12:44.964Z,14.10
2018-02-19T04:15:16.589Z,15.18
2018-02-19T04:17:45.247Z,15.00
2018-02-19T04:20:16.585Z,13.50
2018-02-19T04:22:45.156Z,13.00
2018-02-19T04:25:13.738Z,13.43
2018-02-19T04:27:42.285Z,14.73
2018-02-19T04:30:10.857Z,15.20
2018-02-19T04:32:39.410Z,13.43
2018-02-19T04:35:15.093Z,13.98
2018-02-19T04:37:44.294Z,14.20
2018-02-19T04:40:16.322Z,15.63
2018-02-19T04:42:44.698Z,13.60
2018-02-19T04:45:25.439Z,13.88
2018-02-19T04:47:54.007Z,13.75
2018-02-19T04:50:22.557Z,15.45
2018-02-19T04:52:51.110Z,16.50
2018-02-19T04:55:20.383Z,17.08
2018-02-19T04:57:48.941Z,17.95
2018-02-19T05:00:17.502Z,18.27
2018-02-19T05:02:46.068Z,16.87
2018-02-19T05:05:15.657Z,16.35
2018-02-19T05:07:44.213Z,19.42
2018-02-19T05:10:15.715Z,18.40
2018-02-19T05:12:44.257Z,18.10
2018-02-19T05:15:17.921Z,20.10
2018-02-19T05:17:46.475Z,18.12
2018-02-19T05:20:15.021Z,18.08
2018-02-19T05:22:43.642Z,15.48
2018-02-19T05:25:16.382Z,15.20
2018-02-19T05:27:44.930Z,12.48
2018-02-19T05:30:13.487Z,13.38
2018-02-19T05:32:42.134Z,12.75
2018-02-19T05:35:16.342Z,14.38
2018-02-19T05:37:47.141Z,15.45
2018-02-19T05:40:15.705Z,13.77
2018-02-19T05:42:44.264Z,14.77
2018-02-19T05:45:18.613Z,12.68
2018-02-19T05:47:47.162Z,13.98
2018-02-19T05:50:15.718Z,15.55
2018-02-19T05:52:44.275Z,13.75
2018-02-19T05:55:13.451Z,13.70
2018-02-19T05:57:42.006Z,14.07
2018-02-19T06:00:10.568Z,15.90
2018-02-19T06:02:39.117Z,14.00
2018-02-19T06:05:10.329Z,16.15
2018-02-19T06:07:38.929Z,15.02
2018-02-19T06:10:29.818Z,12.75
2018-02-19T06:12:58.942Z,15.20
2018-02-19T06:15:27.491Z,17.40
2018-02-19T06:17:56.040Z,15.60
2018-02-19T06:20:24.611Z,17.15
2018-02-19T06:22:53.179Z,16.52
2018-02-19T06:25:21.727Z,18.95
2018-02-19T06:27:50.270Z,18.25
2018-02-19T06:30:18.814Z,18.85
2018-02-19T06:32:48.030Z,19.55
2018-02-19T06:35:16.607Z,22.23
2018-02-19T06:37:45.902Z,19.48
2018-02-19T06:40:15.199Z,20.95
2018-02-19T06:42:43.970Z,20.70
2018-02-19T06:45:12.523Z,20.02
2018-02-19T06:47:41.094Z,19.80
2018-02-19T06:50:11.483Z,22.77
2018-02-19T06:52:40.642Z,23.17
2018-02-19T06:55:12.618Z,19.73
2018-02-19T06:57:41.185Z,20.60
2018-02-19T07:00:13.185Z,19.70
2018-02-19T07:02:41.639Z,24.20
2018-02-19T07:05:10.348Z,22.70
2018-02-19T07:07:38.606Z,21.10
2018-02-19T07:10:12.499Z,21.10
2018-02-19T07:12:41.575Z,21.67
2018-02-19T07:15:15.699Z,20.70
2018-02-19T07:17:43.954Z,24.00
2018-02-19T07:20:14.761Z,21.90
2018-02-19T07:22:43.051Z,22.70
2018-02-19T07:25:15.908Z,23.50
2018-02-19T07:27:44.193Z,20.70
2018-02-19T07:30:15.846Z,23.15
2018-02-19T07:32:44.114Z,21.50
2018-02-19T07:35:16.714Z,24.30
2018-02-19T07:37:45.597Z,23.97
2018-02-19T07:40:13.854Z,20.20
2018-02-19T07:42:42.426Z,20.02
2018-02-19T07:45:15.324Z,20.13
2018-02-19T07:47:43.581Z,21.90
2018-02-19T07:50:16.713Z,18.87
2018-02-19T07:52:45.166Z,19.47
2018-02-19T07:55:16.382Z,19.87
2018-02-19T07:57:44.929Z,20.20
2018-02-19T08:00:16.498Z,21.13
2018-02-19T08:02:47.148Z,19.70
2018-02-19T08:05:15.858Z,19.47
2018-02-19T08:07:45.086Z,21.67
2018-02-19T08:10:16.606Z,22.40
2018-02-19T08:12:44.917Z,30.37
2018-02-19T08:15:15.697Z,21.43
2018-02-19T08:17:44.179Z,19.30
2018-02-19T08:20:15.890Z,23.70
2018-02-19T08:22:44.153Z,21.07
2018-02-19T08:25:16.787Z,20.90
2018-02-19T08:27:45.029Z,22.47
2018-02-19T08:30:16.129Z,23.80
2018-02-19T08:32:44.393Z,23.97
2018-02-19T08:35:16.538Z,20.90
2018-02-19T08:37:45.577Z,23.33
2018-02-19T08:40:13.861Z,23.73
2018-02-19T08:42:42.176Z,23.77
2018-02-19T08:45:16.068Z,23.30
2018-02-19T08:47:44.330Z,20.73
2018-02-19T08:50:16.246Z,22.83
2018-02-19T08:52:44.497Z,25.33
2018-02-19T08:55:17.885Z,24.07
2018-02-19T08:57:46.152Z,23.37
2018-02-19T09:00:15.831Z,23.20
2018-02-19T09:02:44.106Z,24.47
2018-02-19T09:05:18.149Z,24.20
2018-02-19T09:07:46.405Z,25.60
2018-02-19T09:10:15.654Z,23.50
2018-02-19T09:12:44.012Z,24.10
2018-02-19T09:15:16.126Z,23.70
2018-02-19T09:17:44.386Z,23.80
2018-02-19T09:20:16.150Z,23.07
2018-02-19T09:22:44.473Z,22.30
2018-02-19T09:25:14.870Z,23.00
2018-02-19T09:27:43.150Z,23.93
2018-02-19T09:30:16.080Z,24.13
2018-02-19T09:32:45.017Z,24.03
2018-02-19T09:35:16.345Z,24.63
2018-02-19T09:37:44.610Z,26.47
2018-02-19T09:40:12.871Z,26.30
2018-02-19T09:42:41.128Z,24.70
2018-02-19T09:45:12.678Z,24.20
2018-02-19T09:47:40.945Z,23.60
2018-02-19T09:50:15.237Z,25.33
2018-02-19T09:52:43.512Z,26.03
2018-02-19T09:55:16.674Z,26.60
2018-02-19T09:57:45.759Z,27.67
2018-02-19T10:00:13.861Z,26.67
2018-02-19T10:02:42.125Z,28.33
2018-02-19T10:05:11.211Z,29.63
2018-02-19T10:07:39.468Z,27.17
2018-02-19T10:10:09.726Z,27.53
2018-02-19T10:12:37.990Z,27.87
2018-02-19T10:15:06.255Z,26.00
2018-02-19T10:17:34.523Z,29.17
2018-02-19T10:20:02.812Z,25.87
2018-02-19T10:22:31.068Z,25.50
2018-02-19T10:24:59.315Z,25.80
2018-02-19T10:27:27.580Z,27.73
2018-02-19T10:29:55.834Z,23.27
2018-02-19T10:32:24.718Z,21.70
2018-02-19T10:34:52.986Z,20.83
2018-02-19T10:37:21.296Z,17.40
2018-02-19T10:39:49.708Z,17.87
2018-02-19T10:42:17.960Z,17.87
2018-02-19T10:44:46.269Z,19.50
2018-02-19T10:47:14.662Z,19.37
2018-02-19T10:49:42.910Z,19.30
2018-02-19T10:52:11.172Z,20.27
2018-02-19T10:54:39.425Z,20.10
2018-02-19T10:57:08.117Z,18.47
2018-02-19T10:59:36.202Z,18.00
2018-02-19T11:02:04.462Z,19.60
2018-02-19T11:04:32.717Z,19.30
2018-02-19T11:07:00.969Z,20.53
2018-02-19T11:09:29.214Z,22.40
2018-02-19T11:11:57.465Z,21.10
2018-02-19T11:14:25.744Z,21.50
2018-02-19T11:16:54.001Z,20.80
2018-02-19T11:19:22.249Z,18.43
2018-02-19T11:21:50.507Z,18.63
2018-02-19T11:24:18.812Z,19.13
2018-02-19T11:26:47.215Z,19.37
2018-02-19T11:29:15.527Z,17.90
2018-02-19T11:31:43.778Z,20.57
2018-02-19T11:34:12.046Z,18.10
2018-02-19T11:36:40.301Z,18.67
2018-02-19T11:39:08.552Z,17.33
2018-02-19T11:41:37.725Z,17.30
2018-02-19T11:44:05.978Z,18.87
2018-02-19T11:46:34.238Z,17.07
2018-02-19T11:49:02.504Z,19.13
2018-02-19T11:51:30.775Z,17.17
2018-02-19T11:53:59.023Z,17.77
2018-02-19T11:56:27.794Z,17.20
2018-02-19T11:58:56.053Z,17.37
2018-02-19T12:01:24.321Z,17.30
2018-02-19T12:03:52.585Z,16.80
2018-02-19T12:06:20.835Z,15.10
2018-02-19T12:08:49.127Z,15.90
2018-02-19T12:11:17.375Z,15.60
2018-02-19T12:13:45.644Z,15.27
2018-02-19T12:16:13.894Z,14.60
2018-02-19T12:18:42.138Z,14.40
2018-02-19T12:21:10.393Z,15.03
2018-02-19T12:23:38.674Z,15.63
2018-02-19T12:26:06.928Z,14.07
2018-02-19T12:28:35.191Z,14.70
2018-02-19T12:31:03.453Z,15.07
2018-02-19T12:33:31.705Z,14.27
2018-02-19T12:35:59.962Z,13.53
2018-02-19T12:38:28.226Z,13.23
2018-02-19T12:40:56.488Z,15.13
2018-02-19T12:43:24.745Z,14.93
2018-02-19T12:45:53.008Z,15.70
2018-02-19T12:48:21.278Z,14.93
2018-02-19T12:50:49.525Z,15.97
2018-02-19T12:53:17.778Z,16.80
2018-02-19T12:55:46.027Z,16.53
2018-02-19T12:58:14.281Z,17.10
2018-02-19T13:00:42.538Z,17.33
2018-02-19T13:03:10.782Z,16.97
2018-02-19T13:05:39.038Z,17.40
2018-02-19T13:08:08.049Z,15.37
2018-02-19T13:10:36.295Z,17.20
2018-02-19T13:13:05.367Z,16.80
2018-02-19T13:15:33.642Z,16.77
2018-02-19T13:18:01.910Z,18.10
2018-02-19T13:20:30.171Z,19.30
2018-02-19T13:22:58.414Z,20.10
2018-02-19T13:25:26.688Z,17.20
2018-02-19T13:27:54.942Z,16.23
2018-02-19T13:30:23.622Z,17.60
2018-02-19T13:32:51.870Z,16.47
2018-02-19T13:35:20.125Z,16.80
2018-02-19T13:37:48.422Z,15.97
2018-02-19T13:40:16.686Z,16.23
2018-02-19T13:42:45.725Z,16.10
2018-02-19T13:45:13.983Z,15.93
2018-02-19T13:47:42.229Z,15.60
2018-02-19T13:50:10.477Z,15.70
2018-02-19T13:52:38.745Z,16.33
2018-02-19T13:55:07.066Z,17.03
2018-02-19T13:57:35.310Z,17.73
2018-02-19T14:00:03.401Z,16.70
2018-02-19T14:02:31.652Z,17.40
2018-02-19T14:04:59.891Z,20.00
2018-02-19T14:07:28.749Z,17.97
2018-02-19T14:09:56.813Z,17.30
2018-02-19T14:12:25.070Z,17.40
2018-02-19T14:14:53.341Z,16.60
2018-02-19T14:17:21.610Z,17.40
2018-02-19T14:19:49.870Z,16.13
2018-02-19T14:22:18.127Z,17.97
2018-02-19T14:24:46.432Z,17.00
2018-02-19T14:27:14.694Z,16.50
2018-02-19T14:29:42.982Z,16.30
2018-02-19T14:32:11.236Z,17.13
2018-02-19T14:34:39.493Z,16.10
2018-02-19T14:37:07.748Z,17.10
2018-02-19T14:39:35.994Z,15.27
2018-02-19T14:42:04.249Z,15.00
2018-02-19T14:44:32.311Z,15.27
2018-02-19T14:47:00.583Z,15.07
2018-02-19T14:49:28.845Z,16.67
2018-02-19T14:51:57.095Z,15.50
2018-02-19T14:54:25.346Z,16.83
2018-02-19T14:56:53.766Z,16.77
2018-02-19T14:59:21.726Z,15.23
2018-02-19T15:01:51.501Z,16.37
2018-02-19T15:04:19.754Z,14.50
2018-02-19T15:06:48.002Z,15.70
2018-02-19T15:09:17.238Z,16.77
2018-02-19T15:11:45.500Z,15.80
2018-02-19T15:14:13.762Z,16.60
2018-02-19T15:16:42.014Z,16.47
2018-02-19T15:19:10.269Z,16.97
2018-02-19T15:21:39.470Z,16.93
2018-02-19T15:24:07.729Z,16.03
2018-02-19T15:26:36.205Z,16.87
2018-02-19T15:29:05.217Z,18.37
2018-02-19T15:31:33.467Z,18.23
2018-02-19T15:34:01.723Z,18.13
2018-02-19T15:36:29.973Z,16.77
2018-02-19T15:38:58.241Z,17.63
2018-02-19T15:41:26.182Z,20.23
2018-02-19T15:43:54.461Z,18.60
2018-02-19T15:46:22.730Z,19.17
2018-02-19T15:48:51.010Z,19.90
2018-02-19T15:51:19.257Z,20.33
2018-02-19T15:53:47.501Z,21.83
2018-02-19T15:56:15.800Z,20.93
2018-02-19T15:58:44.047Z,21.43
2018-02-19T16:01:12.298Z,22.17
2018-02-19T16:03:40.566Z,22.47
2018-02-19T16:06:08.818Z,22.60
2018-02-19T16:08:37.701Z,22.93
2018-02-19T16:11:05.969Z,22.40
2018-02-19T16:13:34.222Z,24.23
2018-02-19T16:16:02.474Z,21.70
2018-02-19T16:18:30.727Z,22.80
2018-02-19T16:20:58.969Z,24.20
2018-02-19T16:23:27.880Z,22.40
2018-02-19T16:25:56.135Z,24.40
2018-02-19T16:28:24.377Z,22.77
2018-02-19T16:30:53.549Z,23.20
2018-02-19T16:33:21.799Z,25.40
2018-02-19T16:35:50.062Z,23.93
2018-02-19T16:38:18.317Z,20.53
2018-02-19T16:40:46.268Z,22.20
2018-02-19T16:43:14.522Z,21.93
2018-02-19T16:45:42.782Z,22.30
2018-02-19T16:48:11.031Z,22.90
2018-02-19T16:50:39.344Z,20.57
2018-02-19T16:53:07.616Z,23.50
2018-02-19T16:55:36.057Z,25.00
2018-02-19T16:58:04.947Z,25.33
2018-02-19T17:00:33.197Z,24.37
2018-02-19T17:03:01.665Z,22.80
2018-02-19T17:05:29.915Z,23.37
2018-02-19T17:07:58.170Z,23.53
2018-02-19T17:10:26.425Z,25.07
2018-02-19T17:12:54.690Z,21.93
2018-02-19T17:15:22.949Z,23.60
2018-02-19T17:17:51.738Z,25.10
2018-02-19T17:20:19.802Z,24.00
2018-02-19T17:22:48.083Z,24.83
2018-02-19T17:25:16.350Z,24.30
2018-02-19T17:27:44.638Z,24.97
2018-02-19T17:30:12.720Z,24.90
2018-02-19T17:32:40.985Z,25.00
2018-02-19T17:35:09.959Z,25.80
2018-02-19T17:37:38.249Z,24.00
2018-02-19T17:40:06.522Z,25.10
2018-02-19T17:42:34.815Z,25.00
2018-02-19T17:45:03.080Z,23.17
2018-02-19T17:47:31.346Z,23.80
2018-02-19T17:49:59.598Z,23.50
2018-02-19T17:52:27.866Z,24.70
2018-02-19T17:54:56.114Z,23.60
2018-02-19T17:57:24.362Z,23.57
2018-02-19T17:59:53.385Z,23.57
2018-02-19T18:02:21.647Z,24.07
2018-02-19T18:04:49.947Z,21.40
2018-02-19T18:07:18.229Z,24.83
2018-02-19T18:09:46.470Z,23.23
2018-02-19T18:12:14.739Z,21.87
2018-02-19T18:14:42.991Z,24.73
2018-02-19T18:17:11.261Z,22.80
2018-02-19T18:19:39.522Z,24.40
2018-02-19T18:22:07.779Z,23.10
2018-02-19T18:24:36.026Z,25.70
2018-02-19T18:27:04.278Z,22.47
2018-02-19T18:29:32.531Z,22.80
2018-02-19T18:32:00.822Z,23.30
2018-02-19T18:34:29.075Z,22.77
2018-02-19T18:36:57.327Z,25.20
2018-02-19T18:39:25.576Z,24.90
2018-02-19T18:41:53.840Z,24.00
2018-02-19T18:44:22.093Z,23.93
2018-02-19T18:46:50.364Z,24.43
2018-02-19T18:49:18.621Z,22.47
2018-02-19T18:51:46.871Z,23.53
2018-02-19T18:54:15.130Z,24.00
2018-02-19T18:56:44.316Z,25.87
2018-02-19T18:59:12.572Z,25.00
2018-02-19T19:01:40.835Z,25.73
2018-02-19T19:04:09.075Z,24.77
2018-02-19T19:06:37.331Z,26.77
2018-02-19T19:09:16.637Z,24.40
2018-02-19T19:11:44.882Z,24.53
2018-02-19T19:14:13.135Z,23.80
2018-02-19T19:16:41.397Z,23.23
2018-02-19T19:19:09.640Z,25.57
2018-02-19T19:21:37.885Z,23.70
2018-02-19T19:24:06.778Z,23.20
2018-02-19T19:26:35.047Z,23.33
2018-02-19T19:29:03.469Z,25.07
2018-02-19T19:31:31.725Z,24.10
2018-02-19T19:33:59.977Z,24.13
2018-02-19T19:36:28.234Z,26.00
2018-02-19T19:38:56.490Z,26.50
2018-02-19T19:41:24.745Z,26.70
2018-02-19T19:43:52.997Z,27.47
2018-02-19T19:46:21.250Z,27.23
2018-02-19T19:48:49.552Z,24.40
2018-02-19T19:51:17.798Z,22.13
2018-02-19T19:53:46.391Z,23.43
2018-02-19T19:56:14.646Z,22.90
2018-02-19T19:58:42.893Z,22.77
2018-02-19T20:01:11.161Z,21.43
2018-02-19T20:03:39.419Z,22.40
2018-02-19T20:06:07.675Z,22.40
2018-02-19T20:08:35.925Z,21.00
2018-02-19T20:11:04.174Z,19.53
2018-02-19T20:13:32.426Z,22.20
2018-02-19T20:16:00.675Z,21.80
2018-02-19T20:18:28.947Z,21.20
2018-02-19T20:20:57.200Z,21.33
2018-02-19T20:23:25.541Z,20.53
2018-02-19T20:25:53.922Z,22.37
2018-02-19T20:28:22.374Z,21.90
2018-02-19T20:30:50.614Z,22.00
2018-02-19T20:33:18.870Z,22.90
2018-02-19T20:35:47.121Z,22.30
2018-02-19T20:38:15.367Z,20.13
2018-02-19T20:40:43.610Z,20.97
2018-02-19T20:43:11.874Z,19.77
2018-02-19T20:45:40.126Z,20.23
2018-02-19T20:48:08.374Z,21.97
2018-02-19T20:50:36.617Z,21.43
2018-02-19T20:53:04.883Z,21.80
2018-02-19T20:55:33.146Z,20.40
2018-02-19T20:58:01.431Z,19.97
2018-02-19T21:00:29.689Z,20.47
2018-02-19T21:02:57.958Z,29.87
2018-02-19T21:05:26.207Z,26.50
2018-02-19T21:07:54.457Z,19.17
2018-02-19T21:10:22.718Z,20.03
2018-02-19T21:12:50.970Z,19.13
2018-02-19T21:15:19.244Z,18.60
2018-02-19T21:17:47.495Z,22.13
2018-02-19T21:20:15.766Z,21.13
2018-02-19T21:22:43.722Z,20.23
2018-02-19T21:25:11.979Z,17.80
2018-02-19T21:27:40.253Z,19.70
2018-02-19T21:30:09.673Z,19.27
2018-02-19T21:32:41.869Z,20.20
2018-02-19T21:35:10.130Z,20.00
2018-02-19T21:37:38.381Z,20.47
2018-02-19T21:40:21.724Z,19.57
2018-02-19T21:42:50.001Z,17.90
2018-02-19T21:45:18.491Z,20.20
2018-02-19T21:47:46.753Z,20.07
2018-02-19T21:50:15.022Z,18.40
2018-02-19T21:52:43.628Z,20.20
2018-02-19T21:55:11.911Z,20.20
2018-02-19T21:57:40.223Z,17.37
2018-02-19T22:00:09.077Z,18.70
2018-02-19T22:02:37.526Z,20.57
2018-02-19T22:05:05.855Z,19.27
2018-02-19T22:07:34.104Z,19.47
2018-02-19T22:10:02.406Z,20.00
2018-02-19T22:12:30.697Z,20.97
2018-02-19T22:14:58.998Z,19.00
2018-02-19T22:17:27.254Z,21.07
2018-02-19T22:19:55.506Z,20.37
2018-02-19T22:22:23.905Z,19.70
2018-02-19T22:24:52.168Z,20.60
2018-02-19T22:27:20.886Z,19.10
2018-02-19T22:29:49.246Z,19.37
2018-02-19T22:32:17.522Z,20.83
2018-02-19T22:34:45.921Z,21.17
2018-02-19T22:37:14.353Z,19.03
2018-02-19T22:39:42.610Z,19.70
2018-02-19T22:42:10.870Z,19.40
2018-02-19T22:44:39.489Z,20.03
2018-02-19T22:47:07.738Z,18.97
2018-02-19T22:49:36.021Z,16.80
2018-02-19T22:52:04.268Z,19.27
2018-02-19T22:54:32.190Z,17.90
2018-02-19T22:57:01.090Z,19.33
2018-02-19T22:59:29.162Z,19.10
2018-02-19T23:01:59.077Z,18.47
2018-02-19T23:04:27.483Z,20.67
2018-02-19T23:06:55.733Z,17.60
2018-02-19T23:09:23.994Z,17.53
2018-02-19T23:11:52.270Z,18.30
2018-02-19T23:14:20.529Z,16.27
2018-02-19T23:16:48.837Z,17.30
2018-02-19T23:19:17.085Z,17.40
2018-02-19T23:21:45.346Z,18.00
2018-02-19T23:24:13.601Z,19.93
2018-02-19T23:26:42.373Z,19.03
2018-02-19T23:29:10.622Z,18.70
2018-02-19T23:31:38.867Z,20.10
2018-02-19T23:34:07.123Z,18.50
2018-02-19T23:36:35.381Z,16.57
2018-02-19T23:39:03.102Z,18.70
2018-02-19T23:41:31.424Z,21.10
2018-02-19T23:43:59.677Z,18.47
2018-02-19T23:46:27.933Z,18.17
2018-02-19T23:48:56.182Z,18.53
2018-02-19T23:51:24.433Z,21.20
2018-02-19T23:53:52.697Z,20.63
2018-02-19T23:56:20.972Z,19.70
2018-02-19T23:58:49.251Z,18.77
